Time;durP1;ratioP1;P1;durP2;ratioP2;P2;SDS_P1;SDS_P2;PMS_P1;PMS_P2;Temp;Humidity;BMP_temperature;BMP_pressure;BME280_temperature;BME280_humidity;BME280_pressure;Samples;Min_cycle;Max_cycle;Signal;HPM_P1;HPM_P2
2021/12/09 00:01:18;;;;;;;;;3.67;2.67;;;;;6.63;59.17;100022.19;5075705;28;45761;-80
2021/12/09 00:03:43;;;;;;;;;4.00;3.00;;;;;6.63;58.76;100022.19;5072788;28;45363;-75
2021/12/09 00:06:11;;;;;;;;;4.00;2.67;;;;;6.57;58.31;100021.13;5072990;28;46262;-74
2021/12/09 00:08:38;;;;;;;;;2.00;2.00;;;;;6.55;58.63;100025.94;5073868;27;45504;-81
2021/12/09 00:11:06;;;;;;;;;2.00;2.00;;;;;6.51;58.55;100020.06;5075232;27;45887;-80
2021/12/09 00:13:32;;;;;;;;;3.00;2.00;;;;;6.52;59.05;100013.53;5073846;28;45615;-81
2021/12/09 00:15:58;;;;;;;;;2.67;2.00;;;;;6.45;58.54;100007.25;5054823;28;46335;-81
2021/12/09 00:18:24;;;;;;;;;3.67;3.67;;;;;6.52;58.56;100021.72;5066372;28;46753;-81
2021/12/09 00:20:49;;;;;;;;;4.00;2.00;;;;;6.50;59.10;100009.38;5067327;27;45495;-80
2021/12/09 00:23:15;;;;;;;;;7.33;3.00;;;;;6.51;58.63;100017.34;5072844;27;45772;-81
2021/12/09 00:25:41;;;;;;;;;2.33;2.33;;;;;6.51;58.21;100019.19;5071060;28;45847;-75
2021/12/09 00:28:07;;;;;;;;;2.00;1.00;;;;;6.52;58.43;100010.00;5071165;28;48526;-81
2021/12/09 00:30:34;;;;;;;;;3.00;2.00;;;;;6.51;58.31;100025.50;5073978;27;45813;-80
2021/12/09 00:33:02;;;;;;;;;3.00;3.00;;;;;6.50;58.54;100017.53;5071049;27;45527;-81
2021/12/09 00:35:33;;;;;;;;;6.00;4.00;;;;;6.49;58.22;100027.56;5074705;27;45751;-75
2021/12/09 00:38:06;;;;;;;;;2.33;1.33;;;;;6.50;58.36;100025.72;5063427;28;47283;-82
2021/12/09 00:40:34;;;;;;;;;2.00;2.00;;;;;6.39;58.37;100004.47;5073751;27;45419;-80
2021/12/09 00:43:01;;;;;;;;;2.00;2.00;;;;;6.43;58.57;100027.53;5068390;27;45894;-82
2021/12/09 00:45:27;;;;;;;;;2.00;1.00;;;;;6.38;59.10;100019.09;5072294;28;45379;-80
2021/12/09 00:47:53;;;;;;;;;1.00;1.00;;;;;6.38;58.95;100030.88;5094179;27;45673;-81
2021/12/09 00:50:20;;;;;;;;;1.67;1.33;;;;;6.39;59.78;100034.41;5089176;27;45835;-75
2021/12/09 00:52:46;;;;;;;;;2.33;2.33;;;;;6.31;59.33;100028.06;5072676;27;45791;-75
2021/12/09 00:55:12;;;;;;;;;1.00;1.00;;;;;6.42;58.87;100043.06;5073038;27;45440;-74
2021/12/09 00:57:39;;;;;;;;;1.00;1.00;;;;;6.46;58.85;100033.41;5067759;27;45552;-75
2021/12/09 01:00:10;;;;;;;;;1.00;1.00;;;;;6.47;59.06;100035.09;5070895;28;45375;-75
2021/12/09 01:02:36;;;;;;;;;3.00;3.00;;;;;6.48;58.89;100034.06;5074483;27;45840;-78
2021/12/09 01:05:04;;;;;;;;;3.00;2.00;;;;;6.50;58.65;100033.88;5069766;28;45913;-80
2021/12/09 01:07:29;;;;;;;;;2.67;2.00;;;;;6.50;58.71;100033.88;5078055;28;46314;-82
2021/12/09 01:09:55;;;;;;;;;3.00;1.00;;;;;6.50;58.72;100029.25;5077725;27;45334;-81
2021/12/09 01:12:23;;;;;;;;;1.33;0.67;;;;;6.54;58.75;100026.97;5077560;27;45733;-81
2021/12/09 01:14:49;;;;;;;;;3.00;2.00;;;;;6.55;58.88;100034.09;5076139;28;45897;-78
2021/12/09 01:17:15;;;;;;;;;1.67;1.33;;;;;6.56;58.92;100038.53;5075960;28;46278;-78
2021/12/09 01:19:41;;;;;;;;;2.00;2.00;;;;;6.57;58.66;100040.19;5089954;27;45955;-81
2021/12/09 01:22:06;;;;;;;;;1.67;1.67;;;;;6.50;58.67;100040.16;5075833;27;45833;-79
2021/12/09 01:24:32;;;;;;;;;3.33;1.67;;;;;6.61;58.78;100052.38;5089979;27;46517;-77
2021/12/09 01:26:59;;;;;;;;;1.00;1.00;;;;;6.63;58.74;100054.91;5089882;27;46159;-78
2021/12/09 01:29:34;;;;;;;;;5.00;1.00;;;;;6.64;58.08;100051.97;5075918;27;45656;-79
2021/12/09 01:32:02;;;;;;;;;2.00;1.33;;;;;6.61;58.04;100046.09;5073390;28;45783;-79
2021/12/09 01:34:28;;;;;;;;;0.67;0.67;;;;;6.64;58.40;100040.25;5074574;27;45430;-78
2021/12/09 01:36:54;;;;;;;;;5.00;1.00;;;;;6.66;58.80;100047.19;5080449;27;47722;-78
2021/12/09 01:39:21;;;;;;;;;2.00;1.00;;;;;6.72;57.92;100045.50;5075103;27;45786;-79
2021/12/09 01:41:47;;;;;;;;;2.67;2.67;;;;;6.75;57.87;100056.03;5080383;27;45782;-78
2021/12/09 01:44:13;;;;;;;;;1.33;1.33;;;;;6.79;58.00;100070.09;5066187;28;45385;-80
2021/12/09 01:46:39;;;;;;;;;2.67;2.67;;;;;6.81;57.69;100065.28;5074640;28;46217;-81
2021/12/09 01:49:05;;;;;;;;;2.33;0.67;;;;;6.84;57.91;100062.13;5076017;28;45430;-80
2021/12/09 01:51:30;;;;;;;;;3.67;2.00;;;;;6.84;58.10;100065.72;5059974;28;45649;-78
2021/12/09 01:53:56;;;;;;;;;4.00;4.00;;;;;6.84;57.54;100063.00;5074169;28;45659;-80
2021/12/09 01:56:24;;;;;;;;;2.00;2.00;;;;;6.92;57.29;100070.16;5075432;28;45718;-79
2021/12/09 01:58:53;;;;;;;;;1.00;1.00;;;;;6.95;57.20;100067.03;5074713;28;45519;-79
2021/12/09 02:01:19;;;;;;;;;3.67;1.00;;;;;6.99;57.08;100079.22;5078325;28;45684;-79
2021/12/09 02:03:45;;;;;;;;;0.00;0.00;;;;;7.02;57.34;100075.22;5077273;28;45100;-80
2021/12/09 02:06:11;;;;;;;;;3.33;1.67;;;;;7.02;57.11;100078.81;5079011;28;45722;-81
2021/12/09 02:08:37;;;;;;;;;1.00;1.00;;;;;7.07;57.51;100075.47;5076790;28;45459;-79
2021/12/09 02:11:03;;;;;;;;;2.00;2.00;;;;;7.07;57.19;100067.31;5075964;28;45321;-80
2021/12/09 02:13:29;;;;;;;;;1.00;1.00;;;;;7.05;57.53;100064.78;5055985;27;45544;-79
2021/12/09 02:15:56;;;;;;;;;2.00;1.00;;;;;7.07;57.84;100064.59;5030777;28;46649;-80
2021/12/09 02:18:22;;;;;;;;;2.00;2.00;;;;;7.13;56.77;100077.41;5051427;28;45926;-81
2021/12/09 02:21:13;;;;;;;;;1.00;1.00;;;;;7.12;57.47;100072.97;5042104;28;45521;-79
2021/12/09 02:23:47;;;;;;;;;1.00;1.00;;;;;7.14;57.55;100073.63;5024532;28;45835;-79
2021/12/09 02:26:20;;;;;;;;;3.00;1.00;;;;;7.18;56.63;100072.16;5052222;28;46291;-81
2021/12/09 02:28:46;;;;;;;;;2.33;2.00;;;;;7.16;57.11;100068.81;5052708;28;46905;-80
2021/12/09 02:31:12;;;;;;;;;1.00;1.00;;;;;7.23;57.05;100066.09;5047952;28;45510;-80
2021/12/09 02:33:37;;;;;;;;;1.00;1.00;;;;;7.23;56.80;100066.09;5048705;28;45817;-81
2021/12/09 02:36:04;;;;;;;;;3.33;1.00;;;;;7.21;56.47;100068.19;5052998;28;45941;-80
2021/12/09 02:38:30;;;;;;;;;0.00;0.00;;;;;7.25;56.42;100072.19;5052656;28;44863;-81
2021/12/09 02:40:56;;;;;;;;;3.33;2.00;;;;;7.24;57.54;100068.66;5053567;28;45900;-80
2021/12/09 02:43:28;;;;;;;;;3.67;1.00;;;;;7.27;57.31;100067.38;5051639;28;45878;-79
2021/12/09 02:45:55;;;;;;;;;3.67;2.00;;;;;7.30;56.82;100069.69;5046012;28;45671;-79
2021/12/09 02:48:21;;;;;;;;;3.67;1.00;;;;;7.32;56.67;100069.50;5051488;28;46026;-79
2021/12/09 02:50:49;;;;;;;;;2.67;1.67;;;;;7.32;56.68;100064.03;5051222;28;45551;-74
2021/12/09 02:53:15;;;;;;;;;2.00;2.00;;;;;7.32;57.51;100069.50;5051477;28;45784;-76
2021/12/09 02:55:40;;;;;;;;;1.00;1.00;;;;;7.33;57.38;100079.38;5051922;28;45432;-79
2021/12/09 02:58:06;;;;;;;;;0.67;0.67;;;;;7.34;56.42;100076.44;5034449;28;45693;-79
2021/12/09 03:00:32;;;;;;;;;1.00;1.00;;;;;7.36;56.86;100078.94;5051840;28;45625;-76
2021/12/09 03:02:58;;;;;;;;;2.00;1.00;;;;;7.36;56.67;100084.41;5051794;28;45459;-80
2021/12/09 03:05:25;;;;;;;;;1.00;0.00;;;;;7.40;56.78;100088.41;5050112;28;46234;-80
2021/12/09 03:07:51;;;;;;;;;1.00;1.00;;;;;7.39;56.57;100073.09;5051762;28;45792;-79
2021/12/09 03:10:23;;;;;;;;;0.00;0.00;;;;;7.36;56.81;100084.41;5051466;28;45860;-79
2021/12/09 03:12:54;;;;;;;;;0.00;0.00;;;;;7.42;56.28;100083.59;5061420;28;45885;-80
2021/12/09 03:15:21;;;;;;;;;3.67;1.67;;;;;7.39;56.75;100078.53;5065362;27;46462;-80
2021/12/09 03:17:47;;;;;;;;;1.00;0.00;;;;;7.43;56.96;100077.94;5072387;27;45588;-81
2021/12/09 03:20:15;;;;;;;;;0.33;0.33;;;;;7.48;56.53;100079.22;5074905;27;45411;-81
2021/12/09 03:22:41;;;;;;;;;0.00;0.00;;;;;7.51;56.60;100079.63;5072602;28;46541;-81
2021/12/09 03:25:10;;;;;;;;;2.33;0.00;;;;;7.54;56.14;100078.38;5074106;28;45677;-81
2021/12/09 03:27:36;;;;;;;;;1.00;0.00;;;;;7.56;56.03;100077.13;5071000;28;45424;-81
2021/12/09 03:30:04;;;;;;;;;4.00;1.00;;;;;7.60;56.46;100077.56;5073813;27;45371;-79
2021/12/09 03:32:30;;;;;;;;;1.00;1.00;;;;;7.67;56.25;100083.03;5091287;27;47770;-80
2021/12/09 03:34:55;;;;;;;;;3.00;1.00;;;;;7.71;56.57;100084.28;5073875;27;45779;-78
2021/12/09 03:37:24;;;;;;;;;2.00;0.00;;;;;7.75;55.91;100096.50;5065396;27;45905;-80
2021/12/09 03:39:51;;;;;;;;;1.00;1.00;;;;;7.79;56.33;100092.31;5063167;28;45810;-77
2021/12/09 03:42:20;;;;;;;;;1.00;1.00;;;;;7.66;55.57;100067.72;5069735;28;46904;-75
2021/12/09 03:44:46;;;;;;;;;1.00;1.00;;;;;7.84;55.49;100097.97;5071417;27;46235;-75
2021/12/09 03:47:14;;;;;;;;;1.33;1.33;;;;;7.88;55.65;100095.69;5070796;27;45509;-75
2021/12/09 03:49:43;;;;;;;;;0.33;0.33;;;;;7.90;56.59;100094.44;5070551;28;46015;-79
2021/12/09 03:52:11;;;;;;;;;1.00;1.00;;;;;7.94;56.16;100094.84;5072249;27;45840;-75
2021/12/09 03:54:36;;;;;;;;;1.00;1.00;;;;;7.94;56.01;100098.41;5070552;27;46118;-75
2021/12/09 03:57:03;;;;;;;;;2.00;2.00;;;;;7.95;55.55;100096.53;5068602;27;45760;-76
2021/12/09 03:59:29;;;;;;;;;1.00;1.00;;;;;8.00;55.25;100104.94;5070604;28;45440;-76
2021/12/09 04:01:54;;;;;;;;;0.67;0.67;;;;;7.97;55.75;100110.81;5070823;27;45804;-77
2021/12/09 04:04:21;;;;;;;;;2.67;1.00;;;;;7.97;55.65;100105.34;5070573;27;45949;-74
2021/12/09 04:06:47;;;;;;;;;4.00;1.00;;;;;7.82;55.62;100080.97;5069544;28;45608;-76
2021/12/09 04:09:14;;;;;;;;;0.00;0.00;;;;;7.88;55.68;100095.69;5070814;28;45603;-80
2021/12/09 04:11:40;;;;;;;;;1.00;0.00;;;;;7.92;55.70;100105.97;5071387;27;45943;-81
2021/12/09 04:14:06;;;;;;;;;0.00;0.00;;;;;7.95;56.57;100107.47;5072023;28;46634;-80
2021/12/09 04:16:32;;;;;;;;;1.00;1.00;;;;;7.93;56.02;100099.47;5085615;27;45454;-80
2021/12/09 04:18:58;;;;;;;;;3.00;1.00;;;;;7.99;55.99;100116.06;5070764;28;45842;-80
2021/12/09 04:21:24;;;;;;;;;1.33;1.00;;;;;8.00;55.14;100125.94;5074976;27;45871;-83
2021/12/09 04:23:49;;;;;;;;;0.00;0.00;;;;;7.95;55.17;100113.75;5091613;27;46624;-79
2021/12/09 04:26:15;;;;;;;;;1.67;0.00;;;;;8.02;55.53;100123.84;5074148;27;45777;-77
2021/12/09 04:28:42;;;;;;;;;4.67;1.00;;;;;8.02;55.10;100119.22;5088832;27;45788;-72
2021/12/09 04:31:09;;;;;;;;;2.33;1.33;;;;;8.05;54.74;100127.00;5089552;27;47026;-76
2021/12/09 04:33:35;;;;;;;;;1.00;1.00;;;;;8.08;55.25;100131.19;5073257;27;46208;-75
2021/12/09 04:36:00;;;;;;;;;0.33;0.33;;;;;8.06;55.14;100120.50;5089157;27;45449;-76
2021/12/09 04:38:26;;;;;;;;;1.33;1.33;;;;;8.07;55.57;100121.34;5073597;28;45550;-74
2021/12/09 04:40:53;;;;;;;;;0.67;0.00;;;;;8.05;54.94;100121.53;5074260;27;45545;-75
2021/12/09 04:43:18;;;;;;;;;2.00;0.00;;;;;8.03;54.82;100109.97;5074700;27;46103;-75
2021/12/09 04:45:44;;;;;;;;;1.00;0.67;;;;;8.04;55.09;100117.13;5073290;27;45425;-75
2021/12/09 04:48:09;;;;;;;;;2.00;1.00;;;;;8.06;54.97;100114.19;5074184;28;45867;-78
2021/12/09 04:50:37;;;;;;;;;2.33;0.67;;;;;8.07;55.06;100103.06;5076378;27;45413;-80
2021/12/09 04:53:04;;;;;;;;;1.00;1.00;;;;;8.12;54.67;100110.63;5073167;28;45731;-80
2021/12/09 04:55:35;;;;;;;;;3.00;1.00;;;;;8.16;55.82;100120.09;5072464;28;45684;-75
2021/12/09 04:58:01;;;;;;;;;0.33;0.33;;;;;8.16;55.58;100124.69;5072463;27;46092;-77
2021/12/09 05:00:29;;;;;;;;;1.33;0.00;;;;;8.13;55.25;100120.50;5073415;27;45642;-75
2021/12/09 05:05:20;;;;;;;;;0.33;0.33;;;;;8.18;55.75;100117.97;5076447;27;45659;-81
2021/12/09 05:07:47;;;;;;;;;1.00;1.00;;;;;8.19;54.72;100118.81;5065651;27;45684;-81
2021/12/09 05:10:12;;;;;;;;;2.33;1.33;;;;;8.12;55.60;100107.91;5073331;27;45742;-78
2021/12/09 05:12:38;;;;;;;;;1.00;1.00;;;;;8.22;55.18;100115.66;5073173;28;45883;-82
2021/12/09 05:15:04;;;;;;;;;1.67;1.67;;;;;8.23;54.60;100115.47;5073707;28;45823;-80
2021/12/09 05:17:29;;;;;;;;;2.33;2.33;;;;;8.23;54.59;100115.47;5074742;27;45432;-81
2021/12/09 05:19:55;;;;;;;;;3.33;2.00;;;;;8.24;54.62;100111.69;5072414;27;46104;-80
2021/12/09 05:22:20;;;;;;;;;0.00;0.00;;;;;8.20;54.58;100106.84;5074460;28;45606;-81
2021/12/09 05:24:49;;;;;;;;;4.00;2.00;;;;;8.20;55.17;100118.59;5076031;27;45696;-81
2021/12/09 05:27:16;;;;;;;;;1.67;1.67;;;;;8.18;55.23;100112.53;5073488;28;45358;-79
2021/12/09 05:29:43;;;;;;;;;4.33;4.00;;;;;8.19;55.74;100118.81;5071050;28;46105;-80
2021/12/09 05:32:11;;;;;;;;;6.00;3.33;;;;;8.22;55.16;100113.78;5063686;28;46417;-79
2021/12/09 05:34:49;;;;;;;;;6.00;3.00;;;;;8.24;55.84;100117.16;5070670;28;45745;-74
2021/12/09 05:37:23;;;;;;;;;19.33;17.00;;;;;8.27;55.20;100115.91;5065615;28;45300;-75
2021/12/09 05:39:51;;;;;;;;;3.00;1.00;;;;;8.29;54.79;100120.09;5070681;27;45699;-74
2021/12/09 05:42:22;;;;;;;;;2.67;2.33;;;;;8.33;54.58;100131.44;5065285;28;45832;-76
2021/12/09 05:44:48;;;;;;;;;3.00;3.00;;;;;8.35;55.03;100129.34;5062987;27;45493;-82
2021/12/09 05:47:15;;;;;;;;;3.00;2.33;;;;;8.36;55.16;100131.03;5071206;27;45481;-80
2021/12/09 05:49:44;;;;;;;;;2.00;2.00;;;;;8.36;54.98;100125.56;5070414;28;45897;-81
2021/12/09 05:52:11;;;;;;;;;4.00;2.00;;;;;8.40;54.81;100131.47;5074450;28;46719;-81
2021/12/09 05:54:37;;;;;;;;;1.33;1.00;;;;;8.41;54.14;100136.72;5072734;28;45806;-78
2021/12/09 05:57:03;;;;;;;;;0.67;0.00;;;;;8.36;55.01;100132.91;5073195;27;46450;-79
2021/12/09 05:59:29;;;;;;;;;2.00;1.00;;;;;8.32;54.61;100135.22;5074065;27;46865;-78
2021/12/09 06:01:55;;;;;;;;;5.00;2.00;;;;;8.24;54.93;100133.53;5074511;27;45442;-79
2021/12/09 06:04:23;;;;;;;;;2.33;2.33;;;;;8.28;55.76;100140.28;5073595;27;45796;-76
2021/12/09 06:06:50;;;;;;;;;3.00;2.00;;;;;8.31;55.50;100142.56;5073455;27;45442;-77
2021/12/09 06:09:17;;;;;;;;;3.33;2.33;;;;;8.24;54.95;100130.81;5073356;28;45586;-84
2021/12/09 06:11:49;;;;;;;;;7.33;5.00;;;;;8.33;54.39;100145.09;5073478;27;45490;-81
2021/12/09 06:14:14;;;;;;;;;6.00;3.33;;;;;8.36;55.49;100158.34;5056459;27;45474;-76
2021/12/09 06:16:40;;;;;;;;;1.33;0.33;;;;;8.38;54.57;100150.75;5055515;28;45409;-77
2021/12/09 06:19:05;;;;;;;;;2.00;2.00;;;;;8.37;54.85;100154.56;5055197;28;45503;-77
2021/12/09 06:21:31;;;;;;;;;2.00;2.00;;;;;8.37;54.66;100159.16;5057693;28;46347;-80
2021/12/09 06:24:01;;;;;;;;;3.00;3.00;;;;;8.22;54.57;100130.19;5061714;28;44732;-82
2021/12/09 06:26:28;;;;;;;;;3.00;3.00;;;;;8.34;54.63;100165.06;5065146;28;45493;-80
2021/12/09 06:28:54;;;;;;;;;2.00;2.00;;;;;8.29;54.53;100147.44;5069152;28;46849;-82
2021/12/09 06:31:20;;;;;;;;;2.00;2.00;;;;;8.20;55.46;100137.72;5069127;28;45766;-81
2021/12/09 06:33:46;;;;;;;;;2.67;1.00;;;;;8.28;54.96;100156.66;5069401;27;45925;-79
2021/12/09 06:36:12;;;;;;;;;1.00;1.00;;;;;8.21;55.67;100155.81;5071791;28;45726;-78
2021/12/09 06:38:38;;;;;;;;;5.00;3.67;;;;;8.21;55.38;100158.53;5071810;28;45392;-79
2021/12/09 06:41:04;;;;;;;;;2.67;2.67;;;;;8.22;55.98;100167.56;5072092;27;45563;-77
2021/12/09 06:43:30;;;;;;;;;2.00;2.00;;;;;8.16;55.36;100172.00;5074124;28;45473;-75
2021/12/09 06:45:58;;;;;;;;;3.33;3.33;;;;;8.07;55.59;100165.88;5074688;27;45401;-80
2021/12/09 06:48:23;;;;;;;;;2.67;2.00;;;;;8.08;55.85;100180.34;5074561;27;45536;-77
2021/12/09 06:50:49;;;;;;;;;5.00;2.67;;;;;8.08;56.38;100177.63;5075033;27;46372;-79
2021/12/09 06:53:16;;;;;;;;;3.00;2.00;;;;;8.09;55.85;100184.78;5079072;27;45413;-78
2021/12/09 06:55:42;;;;;;;;;4.33;2.67;;;;;8.00;55.80;100178.66;5074086;28;45373;-78
2021/12/09 06:58:08;;;;;;;;;4.67;3.67;;;;;7.91;55.79;100179.91;5072141;28;45969;-79
2021/12/09 07:00:40;;;;;;;;;2.00;2.00;;;;;7.91;55.58;100197.13;5073114;27;45712;-79
2021/12/09 07:03:06;;;;;;;;;2.00;2.00;;;;;7.91;55.84;100194.38;5073474;27;45788;-79
2021/12/09 07:05:31;;;;;;;;;4.33;3.33;;;;;7.89;55.06;100185.56;5070403;28;45729;-78
2021/12/09 07:07:57;;;;;;;;;7.00;1.00;;;;;7.86;55.54;100171.47;5073910;27;45672;-79
2021/12/09 07:10:23;;;;;;;;;6.67;4.00;;;;;7.90;55.27;100192.72;5073352;28;46064;-79
2021/12/09 07:12:49;;;;;;;;;3.00;3.00;;;;;7.87;55.32;100187.66;5067490;27;45506;-80
2021/12/09 07:15:16;;;;;;;;;2.67;2.67;;;;;7.85;55.56;100189.75;5070161;27;45904;-78
2021/12/09 07:17:43;;;;;;;;;2.33;2.33;;;;;7.86;55.81;100193.31;5069165;27;45920;-79
2021/12/09 07:20:12;;;;;;;;;3.33;2.67;;;;;7.85;55.23;100187.03;5079356;27;45494;-80
2021/12/09 07:22:38;;;;;;;;;3.33;3.33;;;;;7.83;55.97;100194.59;5052288;28;46219;-78
2021/12/09 07:25:05;;;;;;;;;3.00;3.00;;;;;7.83;55.22;100205.50;5057726;28;45437;-79
2021/12/09 07:27:30;;;;;;;;;6.00;5.00;;;;;7.78;56.00;100189.75;5071921;27;45741;-78
2021/12/09 07:29:56;;;;;;;;;3.67;2.00;;;;;7.81;55.88;100193.94;5071479;28;45519;-77
2021/12/09 07:32:22;;;;;;;;;3.33;2.67;;;;;7.80;55.41;100194.13;5071368;27;45587;-78
2021/12/09 07:34:47;;;;;;;;;4.00;3.00;;;;;7.77;55.59;100177.13;5069696;27;45875;-78
2021/12/09 07:37:12;;;;;;;;;12.33;5.33;;;;;7.77;55.84;100187.22;5071409;27;45995;-79
2021/12/09 07:39:38;;;;;;;;;8.00;5.33;;;;;7.74;55.97;100187.63;5069504;27;46134;-71
2021/12/09 07:42:04;;;;;;;;;3.00;2.67;;;;;7.73;55.09;100196.84;5067519;27;45969;-73
2021/12/09 07:44:30;;;;;;;;;5.00;4.00;;;;;7.70;55.59;100189.06;5061118;27;45594;-74
2021/12/09 07:46:58;;;;;;;;;4.67;3.67;;;;;7.77;56.12;100198.13;5068344;28;46156;-72
2021/12/09 07:49:24;;;;;;;;;4.67;4.00;;;;;7.78;55.30;100188.88;5066918;27;47513;-73
2021/12/09 07:51:50;;;;;;;;;7.00;4.00;;;;;7.77;55.09;100184.50;5066743;28;45851;-73
2021/12/09 07:54:16;;;;;;;;;8.00;4.00;;;;;7.80;55.56;100195.00;5065864;27;45959;-74
2021/12/09 07:56:42;;;;;;;;;4.67;3.67;;;;;7.83;55.14;100201.91;5053229;28;46553;-81
2021/12/09 07:59:08;;;;;;;;;5.33;5.00;;;;;7.88;55.21;100197.53;5054511;28;47061;-72
2021/12/09 08:01:33;;;;;;;;;5.00;4.00;;;;;7.92;55.96;100198.81;5063479;27;46333;-73
2021/12/09 08:04:01;;;;;;;;;5.00;3.67;;;;;7.96;55.00;100207.41;5058208;28;45648;-70
2021/12/09 08:06:27;;;;;;;;;6.33;5.33;;;;;8.01;55.61;100202.19;5065418;27;45817;-70
2021/12/09 08:08:52;;;;;;;;;5.33;4.67;;;;;8.13;54.98;100207.91;5062283;28;46529;-71
2021/12/09 08:11:17;;;;;;;;;7.67;4.00;;;;;8.24;54.86;100214.66;5066473;28;45597;-74
2021/12/09 08:13:43;;;;;;;;;5.00;5.00;;;;;8.28;54.23;100211.28;5064913;27;45771;-72
2021/12/09 08:16:08;;;;;;;;;5.00;5.00;;;;;8.34;54.59;100206.03;5056639;28;45916;-72
2021/12/09 08:18:58;;;;;;;;;5.00;4.00;;;;;8.42;54.80;100214.06;5067037;28;45600;-71
2021/12/09 08:21:25;;;;;;;;;6.00;4.33;;;;;8.53;53.31;100207.16;5064949;28;45790;-75
2021/12/09 08:23:52;;;;;;;;;5.67;4.67;;;;;8.67;53.69;100187.00;5064705;28;45582;-73
2021/12/09 08:26:18;;;;;;;;;4.00;4.00;;;;;8.79;53.89;100200.88;5072148;27;45494;-74
2021/12/09 08:28:43;;;;;;;;;5.00;4.33;;;;;8.88;52.80;100191.41;5065111;27;46396;-74
2021/12/09 08:31:09;;;;;;;;;4.67;4.67;;;;;9.04;52.58;100203.78;5064686;28;45586;-72
2021/12/09 08:33:35;;;;;;;;;2.00;2.00;;;;;9.10;51.73;100194.75;5069230;27;45927;-74
2021/12/09 08:36:00;;;;;;;;;4.67;4.00;;;;;9.22;51.85;100199.56;5069551;28;45653;-74
2021/12/09 08:38:26;;;;;;;;;8.00;5.00;;;;;9.38;51.40;100196.34;5068383;27;45741;-73
2021/12/09 08:40:53;;;;;;;;;6.33;4.00;;;;;9.75;51.21;100201.31;5068739;28;45513;-74
2021/12/09 08:43:19;;;;;;;;;5.33;4.00;;;;;10.23;49.87;100209.88;5067226;27;45461;-74
2021/12/09 08:45:46;;;;;;;;;11.00;9.00;;;;;10.74;48.75;100205.34;5069235;28;46711;-73
2021/12/09 08:48:13;;;;;;;;;4.67;4.67;;;;;11.29;48.02;100220.28;5072196;27;45979;-74
2021/12/09 08:50:40;;;;;;;;;6.33;5.00;;;;;11.80;46.70;100220.97;5081315;27;45527;-74
2021/12/09 08:53:09;;;;;;;;;8.33;5.00;;;;;12.27;45.50;100223.97;5068382;28;45636;-74
2021/12/09 08:55:35;;;;;;;;;4.67;3.00;;;;;12.88;44.31;100221.97;5070015;27;45461;-73
2021/12/09 08:58:01;;;;;;;;;5.00;5.00;;;;;13.39;43.16;100232.59;5072799;27;46013;-80
2021/12/09 09:00:29;;;;;;;;;4.00;4.00;;;;;13.91;41.43;100227.09;5090036;27;46365;-82
2021/12/09 09:02:55;;;;;;;;;6.00;4.33;;;;;14.30;41.43;100223.75;5070173;27;45856;-75
2021/12/09 09:05:20;;;;;;;;;8.00;6.00;;;;;14.79;40.91;100242.56;5069832;28;45743;-75
2021/12/09 09:07:48;;;;;;;;;6.00;5.00;;;;;15.15;39.82;100232.97;5072044;27;45440;-73
2021/12/09 09:10:16;;;;;;;;;4.33;4.33;;;;;15.40;39.32;100225.31;5065778;28;45818;-73
2021/12/09 09:12:42;;;;;;;;;5.33;3.33;;;;;15.86;37.79;100248.13;5069179;27;45397;-73
2021/12/09 09:15:11;;;;;;;;;2.67;2.67;;;;;16.16;37.58;100249.59;5067253;27;45610;-73
2021/12/09 09:17:37;;;;;;;;;3.00;3.00;;;;;16.15;37.29;100245.16;5067567;28;45972;-74
2021/12/09 09:20:07;;;;;;;;;5.00;3.00;;;;;16.30;36.89;100253.66;5069387;27;45507;-74
2021/12/09 09:22:32;;;;;;;;;4.67;3.00;;;;;16.52;36.86;100258.28;5069150;28;45837;-74
2021/12/09 09:24:58;;;;;;;;;6.33;3.00;;;;;16.71;35.55;100248.53;5070751;28;45668;-72
2021/12/09 09:27:23;;;;;;;;;3.67;2.00;;;;;16.92;36.02;100257.06;5082803;27;47772;-72
2021/12/09 09:29:49;;;;;;;;;2.00;2.00;;;;;17.07;35.53;100254.41;5067093;28;45745;-73
2021/12/09 09:32:15;;;;;;;;;3.33;3.00;;;;;17.08;34.88;100252.47;5069059;28;45945;-74
2021/12/09 09:34:41;;;;;;;;;2.67;2.67;;;;;17.22;35.71;100258.41;5063326;27;45688;-75
2021/12/09 09:37:08;;;;;;;;;3.67;3.67;;;;;17.35;35.29;100262.66;5069728;27;45750;-75
2021/12/09 09:39:34;;;;;;;;;3.33;3.00;;;;;17.55;34.17;100259.19;5071462;27;45906;-75
2021/12/09 09:42:19;;;;;;;;;4.00;4.00;;;;;17.65;34.71;100260.09;5082809;27;45485;-72
2021/12/09 09:44:54;;;;;;;;;9.67;8.33;;;;;17.68;34.20;100266.19;5071513;28;46988;-74
2021/12/09 09:47:25;;;;;;;;;4.00;3.00;;;;;17.78;33.12;100275.44;5065802;27;47493;-73
2021/12/09 09:49:54;;;;;;;;;9.33;5.67;;;;;17.83;33.58;100275.44;5067894;28;45723;-72
2021/12/09 09:52:20;;;;;;;;;5.00;3.67;;;;;17.92;34.08;100275.81;5068765;27;45527;-74
2021/12/09 09:54:46;;;;;;;;;5.67;4.00;;;;;17.96;33.01;100284.41;5063041;28;45482;-73
2021/12/09 09:57:12;;;;;;;;;2.00;2.00;;;;;17.91;33.75;100284.41;5068454;28;46358;-73
2021/12/09 09:59:40;;;;;;;;;2.00;2.00;;;;;17.85;33.77;100288.22;5064812;27;45385;-72
2021/12/09 10:02:08;;;;;;;;;6.00;4.00;;;;;17.72;33.28;100276.47;5063344;28;45387;-72
2021/12/09 10:04:57;;;;;;;;;5.33;2.33;;;;;17.55;34.50;100279.44;5064202;27;45777;-72
2021/12/09 10:07:24;;;;;;;;;3.00;2.00;;;;;17.49;34.56;100274.97;5061566;28;45780;-73
2021/12/09 10:09:51;;;;;;;;;2.00;2.00;;;;;17.38;34.45;100270.44;5068936;27;45663;-74
2021/12/09 10:12:16;;;;;;;;;3.33;3.00;;;;;17.50;34.53;100271.09;5071810;27;45737;-72
2021/12/09 10:14:50;;;;;;;;;3.33;3.33;;;;;17.49;34.28;100268.59;5069370;28;45637;-73
2021/12/09 10:17:19;;;;;;;;;5.67;5.33;;;;;17.57;34.56;100255.03;5070336;27;46750;-73
2021/12/09 10:19:47;;;;;;;;;2.33;2.00;;;;;17.46;33.49;100250.53;5070046;28;45527;-72
2021/12/09 10:22:12;;;;;;;;;4.00;4.00;;;;;17.34;34.51;100256.28;5059235;28;45461;-81
2021/12/09 10:24:40;;;;;;;;;2.33;2.33;;;;;17.25;34.75;100263.44;5069986;28;45357;-72
2021/12/09 10:27:08;;;;;;;;;2.00;2.00;;;;;17.01;34.70;100249.94;5071458;28;46136;-73
2021/12/09 10:29:42;;;;;;;;;4.33;3.67;;;;;16.82;35.01;100240.31;5069917;28;45585;-86
2021/12/09 10:32:13;;;;;;;;;5.67;2.33;;;;;16.51;36.14;100232.56;5070860;28;45928;-73
2021/12/09 10:34:41;;;;;;;;;4.67;3.00;;;;;16.32;36.03;100232.06;5060790;28;45701;-72
2021/12/09 10:37:10;;;;;;;;;2.67;1.67;;;;;16.15;36.29;100240.47;5058583;27;45722;-73
2021/12/09 10:39:52;;;;;;;;;7.00;5.00;;;;;16.13;37.06;100230.75;5067572;27;45464;-80
2021/12/09 10:42:23;;;;;;;;;4.00;2.00;;;;;16.06;36.78;100231.78;5065455;28;45640;-80
2021/12/09 10:44:50;;;;;;;;;5.33;3.00;;;;;15.97;36.51;100226.94;5073136;27;45435;-81
2021/12/09 10:47:24;;;;;;;;;4.00;3.67;;;;;15.76;36.96;100226.66;5074703;28;45822;-74
2021/12/09 10:53:31;;;;;;;;;5.33;4.67;;;;;15.55;38.00;100220.00;5047262;28;45775;-83
2021/12/09 10:55:58;;;;;;;;;7.33;3.67;;;;;15.42;38.16;100212.94;5072152;28;45591;-82
2021/12/09 10:58:29;;;;;;;;;2.67;2.00;;;;;15.23;38.39;100223.44;5073658;27;46571;-81
2021/12/09 11:04:00;;;;;;;;;4.00;4.00;;;;;14.96;38.78;100201.19;5069755;27;45852;-82
2021/12/09 11:06:35;;;;;;;;;3.67;3.67;;;;;14.81;38.82;100210.06;5078732;27;45315;-85
2021/12/09 11:09:06;;;;;;;;;3.33;2.67;;;;;14.46;38.95;100180.69;5069345;27;46957;-83
2021/12/09 11:11:44;;;;;;;;;4.33;2.33;;;;;14.50;40.07;100192.91;5059759;27;45890;-80
2021/12/09 11:14:17;;;;;;;;;4.00;3.33;;;;;14.57;40.07;100199.13;5064049;27;45519;-81
2021/12/09 11:16:51;;;;;;;;;3.00;3.00;;;;;14.50;40.03;100201.19;5063623;27;45893;-80
2021/12/09 11:19:46;;;;;;;;;7.33;5.00;;;;;14.48;39.86;100198.69;5067588;28;45386;-82
2021/12/09 11:22:15;;;;;;;;;4.67;3.00;;;;;14.32;40.13;100190.41;5069617;28;45465;-80
2021/12/09 11:24:45;;;;;;;;;3.00;3.00;;;;;14.26;41.00;100209.59;5073816;27;45497;-79
2021/12/09 11:27:18;;;;;;;;;2.67;1.67;;;;;14.15;41.07;100202.22;5065832;27;45842;-79
2021/12/09 11:29:51;;;;;;;;;7.00;4.00;;;;;14.10;41.39;100204.84;5067186;27;45901;-81
2021/12/09 11:35:17;;;;;;;;;2.00;1.67;;;;;13.99;41.59;100198.31;5077829;27;45778;-80
2021/12/09 11:40:28;;;;;;;;;4.67;2.00;;;;;13.81;41.74;100191.06;5069122;27;46272;-82
2021/12/09 11:43:00;;;;;;;;;5.67;1.33;;;;;13.70;41.47;100183.69;5070038;27;45563;-83
2021/12/09 11:45:29;;;;;;;;;6.33;3.00;;;;;13.61;43.39;100172.19;5075339;27;45760;-75
2021/12/09 11:48:09;;;;;;;;;4.33;3.00;;;;;13.57;43.71;100188.34;5069358;27;45446;-76